sensor_id;sensor_type;location;lat;lon;timestamp;P1;durP1;ratioP1;P2;durP2;ratioP2
60354;SDS011;46198;51.464;-0.066;2023-07-28T00:00:53;15.13;;;6.80;;
60354;SDS011;46198;51.464;-0.066;2023-07-28T00:03:22;13.98;;;7.18;;
60354;SDS011;46198;51.464;-0.066;2023-07-28T00:05:50;11.20;;;6.60;;
60354;SDS011;46198;51.464;-0.066;2023-07-28T00:08:19;13.85;;;7.32;;
60354;SDS011;46198;51.464;-0.066;2023-07-28T00:10:47;10.20;;;7.10;;
60354;SDS011;46198;51.464;-0.066;2023-07-28T00:13:15;9.00;;;6.43;;
60354;SDS011;46198;51.464;-0.066;2023-07-28T00:15:43;12.95;;;6.80;;
60354;SDS011;46198;51.464;-0.066;2023-07-28T00:18:11;12.40;;;6.47;;
60354;SDS011;46198;51.464;-0.066;2023-07-28T00:20:39;15.38;;;6.50;;
60354;SDS011;46198;51.464;-0.066;2023-07-28T00:23:08;12.00;;;6.68;;
60354;SDS011;46198;51.464;-0.066;2023-07-28T00:25:37;11.10;;;6.50;;
60354;SDS011;46198;51.464;-0.066;2023-07-28T00:28:05;12.23;;;6.35;;
60354;SDS011;46198;51.464;-0.066;2023-07-28T00:30:33;12.15;;;6.60;;
60354;SDS011;46198;51.464;-0.066;2023-07-28T00:33:02;11.82;;;6.20;;
60354;SDS011;46198;51.464;-0.066;2023-07-28T00:35:30;13.10;;;6.53;;
60354;SDS011;46198;51.464;-0.066;2023-07-28T00:37:58;13.10;;;7.20;;
60354;SDS011;46198;51.464;-0.066;2023-07-28T00:40:26;11.80;;;6.70;;
60354;SDS011;46198;51.464;-0.066;2023-07-28T00:42:55;15.13;;;6.10;;
60354;SDS011;46198;51.464;-0.066;2023-07-28T00:45:24;13.75;;;6.35;;
60354;SDS011;46198;51.464;-0.066;2023-07-28T00:47:52;10.30;;;7.00;;
60354;SDS011;46198;51.464;-0.066;2023-07-28T00:50:21;12.52;;;6.82;;
60354;SDS011;46198;51.464;-0.066;2023-07-28T00:52:50;9.60;;;6.43;;
60354;SDS011;46198;51.464;-0.066;2023-07-28T00:55:18;13.95;;;6.65;;
60354;SDS011;46198;51.464;-0.066;2023-07-28T00:57:46;12.18;;;5.90;;
60354;SDS011;46198;51.464;-0.066;2023-07-28T01:00:17;12.82;;;6.30;;
60354;SDS011;46198;51.464;-0.066;2023-07-28T01:02:45;13.55;;;6.25;;
60354;SDS011;46198;51.464;-0.066;2023-07-28T01:05:13;10.27;;;6.63;;
60354;SDS011;46198;51.464;-0.066;2023-07-28T01:07:43;11.60;;;5.85;;
60354;SDS011;46198;51.464;-0.066;2023-07-28T01:10:14;9.77;;;6.50;;
60354;SDS011;46198;51.464;-0.066;2023-07-28T01:12:46;10.68;;;6.05;;
60354;SDS011;46198;51.464;-0.066;2023-07-28T01:15:14;14.98;;;6.05;;
60354;SDS011;46198;51.464;-0.066;2023-07-28T01:17:43;11.38;;;6.10;;
60354;SDS011;46198;51.464;-0.066;2023-07-28T01:20:12;13.27;;;6.72;;
60354;SDS011;46198;51.464;-0.066;2023-07-28T01:22:53;11.73;;;6.47;;
60354;SDS011;46198;51.464;-0.066;2023-07-28T01:25:36;9.18;;;5.63;;
60354;SDS011;46198;51.464;-0.066;2023-07-28T01:28:13;10.52;;;5.32;;
60354;SDS011;46198;51.464;-0.066;2023-07-28T01:30:43;10.30;;;5.15;;
60354;SDS011;46198;51.464;-0.066;2023-07-28T01:33:12;10.25;;;5.30;;
60354;SDS011;46198;51.464;-0.066;2023-07-28T01:35:40;12.13;;;5.65;;
60354;SDS011;46198;51.464;-0.066;2023-07-28T01:38:08;7.00;;;3.90;;
60354;SDS011;46198;51.464;-0.066;2023-07-28T01:40:37;7.50;;;3.55;;
60354;SDS011;46198;51.464;-0.066;2023-07-28T01:43:05;4.55;;;2.42;;
60354;SDS011;46198;51.464;-0.066;2023-07-28T01:45:34;3.78;;;2.30;;
60354;SDS011;46198;51.464;-0.066;2023-07-28T01:48:02;3.00;;;1.95;;
60354;SDS011;46198;51.464;-0.066;2023-07-28T01:50:31;2.70;;;1.88;;
60354;SDS011;46198;51.464;-0.066;2023-07-28T01:52:59;1.90;;;1.63;;
60354;SDS011;46198;51.464;-0.066;2023-07-28T01:55:27;3.30;;;2.08;;
60354;SDS011;46198;51.464;-0.066;2023-07-28T01:57:56;2.55;;;1.90;;
60354;SDS011;46198;51.464;-0.066;2023-07-28T02:00:26;3.17;;;1.80;;
60354;SDS011;46198;51.464;-0.066;2023-07-28T02:02:56;2.17;;;1.90;;
60354;SDS011;46198;51.464;-0.066;2023-07-28T02:07:53;1.80;;;1.52;;
60354;SDS011;46198;51.464;-0.066;2023-07-28T02:10:21;2.15;;;1.58;;
60354;SDS011;46198;51.464;-0.066;2023-07-28T02:12:50;1.73;;;1.60;;
60354;SDS011;46198;51.464;-0.066;2023-07-28T02:15:18;4.32;;;1.67;;
60354;SDS011;46198;51.464;-0.066;2023-07-28T02:17:46;1.80;;;1.52;;
60354;SDS011;46198;51.464;-0.066;2023-07-28T02:20:23;2.55;;;1.38;;
60354;SDS011;46198;51.464;-0.066;2023-07-28T02:22:51;3.00;;;1.77;;
60354;SDS011;46198;51.464;-0.066;2023-07-28T02:25:19;2.22;;;1.67;;
60354;SDS011;46198;51.464;-0.066;2023-07-28T02:27:47;2.63;;;1.70;;
60354;SDS011;46198;51.464;-0.066;2023-07-28T02:30:16;1.80;;;1.42;;
60354;SDS011;46198;51.464;-0.066;2023-07-28T02:32:44;5.40;;;1.83;;
60354;SDS011;46198;51.464;-0.066;2023-07-28T02:35:12;1.42;;;1.33;;
60354;SDS011;46198;51.464;-0.066;2023-07-28T02:37:42;2.47;;;1.80;;
60354;SDS011;46198;51.464;-0.066;2023-07-28T02:40:10;2.33;;;1.52;;
60354;SDS011;46198;51.464;-0.066;2023-07-28T02:42:39;3.55;;;1.60;;
60354;SDS011;46198;51.464;-0.066;2023-07-28T02:45:07;1.60;;;1.50;;
60354;SDS011;46198;51.464;-0.066;2023-07-28T02:47:37;2.88;;;1.75;;
60354;SDS011;46198;51.464;-0.066;2023-07-28T02:50:05;2.20;;;1.60;;
60354;SDS011;46198;51.464;-0.066;2023-07-28T02:52:34;3.17;;;1.42;;
60354;SDS011;46198;51.464;-0.066;2023-07-28T02:55:03;1.63;;;1.52;;
60354;SDS011;46198;51.464;-0.066;2023-07-28T02:57:32;2.13;;;1.40;;
60354;SDS011;46198;51.464;-0.066;2023-07-28T03:00:00;2.85;;;1.60;;
60354;SDS011;46198;51.464;-0.066;2023-07-28T03:02:29;2.03;;;1.30;;
60354;SDS011;46198;51.464;-0.066;2023-07-28T03:04:58;3.60;;;1.33;;
60354;SDS011;46198;51.464;-0.066;2023-07-28T03:07:32;1.20;;;1.10;;
60354;SDS011;46198;51.464;-0.066;2023-07-28T03:10:06;1.52;;;1.25;;
60354;SDS011;46198;51.464;-0.066;2023-07-28T03:12:36;2.58;;;1.58;;
60354;SDS011;46198;51.464;-0.066;2023-07-28T03:15:05;1.33;;;1.23;;
60354;SDS011;46198;51.464;-0.066;2023-07-28T03:17:33;2.15;;;1.00;;
60354;SDS011;46198;51.464;-0.066;2023-07-28T03:20:02;1.75;;;1.00;;
60354;SDS011;46198;51.464;-0.066;2023-07-28T03:22:30;1.25;;;0.90;;
60354;SDS011;46198;51.464;-0.066;2023-07-28T03:24:58;1.65;;;1.08;;
60354;SDS011;46198;51.464;-0.066;2023-07-28T03:27:28;1.92;;;1.10;;
60354;SDS011;46198;51.464;-0.066;2023-07-28T03:29:56;0.77;;;0.73;;
60354;SDS011;46198;51.464;-0.066;2023-07-28T03:32:25;1.10;;;1.00;;
60354;SDS011;46198;51.464;-0.066;2023-07-28T03:34:53;1.63;;;0.98;;
60354;SDS011;46198;51.464;-0.066;2023-07-28T03:37:21;1.13;;;0.95;;
60354;SDS011;46198;51.464;-0.066;2023-07-28T03:39:49;1.27;;;0.80;;
60354;SDS011;46198;51.464;-0.066;2023-07-28T03:44:49;1.45;;;1.00;;
60354;SDS011;46198;51.464;-0.066;2023-07-28T03:47:18;1.10;;;0.70;;
60354;SDS011;46198;51.464;-0.066;2023-07-28T03:49:46;1.55;;;0.95;;
60354;SDS011;46198;51.464;-0.066;2023-07-28T03:52:15;1.48;;;0.80;;
60354;SDS011;46198;51.464;-0.066;2023-07-28T03:54:43;1.52;;;1.02;;
60354;SDS011;46198;51.464;-0.066;2023-07-28T03:57:11;1.25;;;0.82;;
60354;SDS011;46198;51.464;-0.066;2023-07-28T03:59:39;1.00;;;0.80;;
60354;SDS011;46198;51.464;-0.066;2023-07-28T04:02:09;0.60;;;0.60;;
60354;SDS011;46198;51.464;-0.066;2023-07-28T04:04:37;0.73;;;0.73;;
60354;SDS011;46198;51.464;-0.066;2023-07-28T04:07:05;0.80;;;0.60;;
60354;SDS011;46198;51.464;-0.066;2023-07-28T04:09:33;2.08;;;0.73;;
60354;SDS011;46198;51.464;-0.066;2023-07-28T04:12:01;0.85;;;0.80;;
60354;SDS011;46198;51.464;-0.066;2023-07-28T04:14:29;0.60;;;0.60;;
60354;SDS011;46198;51.464;-0.066;2023-07-28T04:16:57;0.63;;;0.60;;
60354;SDS011;46198;51.464;-0.066;2023-07-28T04:19:27;0.60;;;0.60;;
60354;SDS011;46198;51.464;-0.066;2023-07-28T04:24:26;1.75;;;0.50;;
60354;SDS011;46198;51.464;-0.066;2023-07-28T04:26:54;0.95;;;0.50;;
60354;SDS011;46198;51.464;-0.066;2023-07-28T04:29:22;1.23;;;0.60;;
60354;SDS011;46198;51.464;-0.066;2023-07-28T04:31:50;0.50;;;0.50;;
60354;SDS011;46198;51.464;-0.066;2023-07-28T04:34:29;0.85;;;0.60;;
60354;SDS011;46198;51.464;-0.066;2023-07-28T04:37:05;0.73;;;0.70;;
60354;SDS011;46198;51.464;-0.066;2023-07-28T04:39:44;1.20;;;0.60;;
60354;SDS011;46198;51.464;-0.066;2023-07-28T04:42:14;1.85;;;0.52;;
60354;SDS011;46198;51.464;-0.066;2023-07-28T04:44:45;1.38;;;0.70;;
60354;SDS011;46198;51.464;-0.066;2023-07-28T04:47:15;0.38;;;0.38;;
60354;SDS011;46198;51.464;-0.066;2023-07-28T04:49:44;0.50;;;0.43;;
60354;SDS011;46198;51.464;-0.066;2023-07-28T04:52:12;0.40;;;0.40;;
60354;SDS011;46198;51.464;-0.066;2023-07-28T04:57:32;0.63;;;0.63;;
60354;SDS011;46198;51.464;-0.066;2023-07-28T05:00:00;0.98;;;0.57;;
60354;SDS011;46198;51.464;-0.066;2023-07-28T05:02:28;0.55;;;0.55;;
60354;SDS011;46198;51.464;-0.066;2023-07-28T05:04:58;1.83;;;0.50;;
60354;SDS011;46198;51.464;-0.066;2023-07-28T05:07:26;1.27;;;0.55;;
60354;SDS011;46198;51.464;-0.066;2023-07-28T05:09:53;0.80;;;0.40;;
60354;SDS011;46198;51.464;-0.066;2023-07-28T05:12:24;0.93;;;0.57;;
60354;SDS011;46198;51.464;-0.066;2023-07-28T05:14:52;0.60;;;0.47;;
60354;SDS011;46198;51.464;-0.066;2023-07-28T05:17:20;0.98;;;0.70;;
60354;SDS011;46198;51.464;-0.066;2023-07-28T05:20:22;1.52;;;0.70;;
60354;SDS011;46198;51.464;-0.066;2023-07-28T05:22:56;1.40;;;0.60;;
60354;SDS011;46198;51.464;-0.066;2023-07-28T05:25:28;0.50;;;0.50;;
60354;SDS011;46198;51.464;-0.066;2023-07-28T05:30:28;0.40;;;0.40;;
60354;SDS011;46198;51.464;-0.066;2023-07-28T05:32:57;1.20;;;0.50;;
60354;SDS011;46198;51.464;-0.066;2023-07-28T05:35:41;0.50;;;0.45;;
60354;SDS011;46198;51.464;-0.066;2023-07-28T05:38:09;1.13;;;0.60;;
60354;SDS011;46198;51.464;-0.066;2023-07-28T05:40:37;0.85;;;0.50;;
60354;SDS011;46198;51.464;-0.066;2023-07-28T05:43:06;1.27;;;0.60;;
60354;SDS011;46198;51.464;-0.066;2023-07-28T05:45:34;0.82;;;0.50;;
60354;SDS011;46198;51.464;-0.066;2023-07-28T05:48:03;1.73;;;0.70;;
60354;SDS011;46198;51.464;-0.066;2023-07-28T05:50:31;1.70;;;0.68;;
60354;SDS011;46198;51.464;-0.066;2023-07-28T05:53:01;0.60;;;0.60;;
60354;SDS011;46198;51.464;-0.066;2023-07-28T05:55:30;2.08;;;0.70;;
60354;SDS011;46198;51.464;-0.066;2023-07-28T05:57:59;1.88;;;0.43;;
60354;SDS011;46198;51.464;-0.066;2023-07-28T06:00:27;1.52;;;0.57;;
60354;SDS011;46198;51.464;-0.066;2023-07-28T06:02:56;0.93;;;0.60;;
60354;SDS011;46198;51.464;-0.066;2023-07-28T06:05:42;1.85;;;0.50;;
60354;SDS011;46198;51.464;-0.066;2023-07-28T06:08:12;0.40;;;0.40;;
60354;SDS011;46198;51.464;-0.066;2023-07-28T06:10:40;2.92;;;0.70;;
60354;SDS011;46198;51.464;-0.066;2023-07-28T06:13:08;1.58;;;0.82;;
60354;SDS011;46198;51.464;-0.066;2023-07-28T06:15:38;1.50;;;0.60;;
60354;SDS011;46198;51.464;-0.066;2023-07-28T06:18:06;2.67;;;0.90;;
60354;SDS011;46198;51.464;-0.066;2023-07-28T06:20:34;0.80;;;0.75;;
60354;SDS011;46198;51.464;-0.066;2023-07-28T06:23:03;0.63;;;0.50;;
60354;SDS011;46198;51.464;-0.066;2023-07-28T06:25:32;1.52;;;0.50;;
60354;SDS011;46198;51.464;-0.066;2023-07-28T06:28:06;0.52;;;0.52;;
60354;SDS011;46198;51.464;-0.066;2023-07-28T06:30:34;0.60;;;0.60;;
60354;SDS011;46198;51.464;-0.066;2023-07-28T06:33:02;1.55;;;0.50;;
60354;SDS011;46198;51.464;-0.066;2023-07-28T06:35:31;1.05;;;0.57;;
60354;SDS011;46198;51.464;-0.066;2023-07-28T06:37:59;2.03;;;0.70;;
60354;SDS011;46198;51.464;-0.066;2023-07-28T06:40:27;1.80;;;0.70;;
60354;SDS011;46198;51.464;-0.066;2023-07-28T06:42:57;1.02;;;0.50;;
60354;SDS011;46198;51.464;-0.066;2023-07-28T06:45:25;0.55;;;0.52;;
60354;SDS011;46198;51.464;-0.066;2023-07-28T06:47:54;0.82;;;0.75;;
60354;SDS011;46198;51.464;-0.066;2023-07-28T06:50:22;1.35;;;0.75;;
60354;SDS011;46198;51.464;-0.066;2023-07-28T06:52:53;0.70;;;0.60;;
60354;SDS011;46198;51.464;-0.066;2023-07-28T06:55:24;0.77;;;0.60;;
60354;SDS011;46198;51.464;-0.066;2023-07-28T06:57:52;1.38;;;0.70;;
60354;SDS011;46198;51.464;-0.066;2023-07-28T07:00:22;0.60;;;0.60;;
60354;SDS011;46198;51.464;-0.066;2023-07-28T07:02:51;1.45;;;0.47;;
60354;SDS011;46198;51.464;-0.066;2023-07-28T07:05:22;1.95;;;0.70;;
60354;SDS011;46198;51.464;-0.066;2023-07-28T07:07:51;1.13;;;0.80;;
60354;SDS011;46198;51.464;-0.066;2023-07-28T07:10:20;0.70;;;0.70;;
60354;SDS011;46198;51.464;-0.066;2023-07-28T07:12:49;1.02;;;0.68;;
60354;SDS011;46198;51.464;-0.066;2023-07-28T07:15:17;1.42;;;1.00;;
60354;SDS011;46198;51.464;-0.066;2023-07-28T07:17:46;0.50;;;0.50;;
60354;SDS011;46198;51.464;-0.066;2023-07-28T07:20:14;0.63;;;0.50;;
60354;SDS011;46198;51.464;-0.066;2023-07-28T07:22:43;0.75;;;0.40;;
60354;SDS011;46198;51.464;-0.066;2023-07-28T07:25:11;1.23;;;0.60;;
60354;SDS011;46198;51.464;-0.066;2023-07-28T07:27:39;0.30;;;0.30;;
60354;SDS011;46198;51.464;-0.066;2023-07-28T07:30:07;0.55;;;0.40;;
60354;SDS011;46198;51.464;-0.066;2023-07-28T07:32:36;1.17;;;0.45;;
60354;SDS011;46198;51.464;-0.066;2023-07-28T07:35:07;1.02;;;0.50;;
60354;SDS011;46198;51.464;-0.066;2023-07-28T07:37:36;0.50;;;0.45;;
60354;SDS011;46198;51.464;-0.066;2023-07-28T07:40:07;0.70;;;0.40;;
60354;SDS011;46198;51.464;-0.066;2023-07-28T07:42:40;1.13;;;0.40;;
60354;SDS011;46198;51.464;-0.066;2023-07-28T07:45:09;2.78;;;0.75;;
60354;SDS011;46198;51.464;-0.066;2023-07-28T07:47:38;3.08;;;0.60;;
60354;SDS011;46198;51.464;-0.066;2023-07-28T07:50:08;2.10;;;0.50;;
60354;SDS011;46198;51.464;-0.066;2023-07-28T07:52:38;1.05;;;0.55;;
60354;SDS011;46198;51.464;-0.066;2023-07-28T07:55:08;0.75;;;0.50;;
60354;SDS011;46198;51.464;-0.066;2023-07-28T07:57:38;0.40;;;0.40;;
60354;SDS011;46198;51.464;-0.066;2023-07-28T08:00:06;1.40;;;0.50;;
60354;SDS011;46198;51.464;-0.066;2023-07-28T08:02:40;1.27;;;0.40;;
60354;SDS011;46198;51.464;-0.066;2023-07-28T08:05:13;0.40;;;0.40;;
60354;SDS011;46198;51.464;-0.066;2023-07-28T08:07:42;0.53;;;0.53;;
60354;SDS011;46198;51.464;-0.066;2023-07-28T08:10:11;1.27;;;0.50;;
60354;SDS011;46198;51.464;-0.066;2023-07-28T08:12:40;1.58;;;0.50;;
60354;SDS011;46198;51.464;-0.066;2023-07-28T08:17:39;1.50;;;0.60;;
60354;SDS011;46198;51.464;-0.066;2023-07-28T08:20:07;0.90;;;0.60;;
60354;SDS011;46198;51.464;-0.066;2023-07-28T08:22:37;1.55;;;0.80;;
60354;SDS011;46198;51.464;-0.066;2023-07-28T08:25:06;1.65;;;0.68;;
60354;SDS011;46198;51.464;-0.066;2023-07-28T08:27:34;0.90;;;0.70;;
60354;SDS011;46198;51.464;-0.066;2023-07-28T08:30:03;0.60;;;0.60;;
60354;SDS011;46198;51.464;-0.066;2023-07-28T08:32:31;0.93;;;0.60;;
60354;SDS011;46198;51.464;-0.066;2023-07-28T08:35:03;1.40;;;1.30;;
60354;SDS011;46198;51.464;-0.066;2023-07-28T08:37:32;0.70;;;0.60;;
60354;SDS011;46198;51.464;-0.066;2023-07-28T08:40:04;1.23;;;0.55;;
60354;SDS011;46198;51.464;-0.066;2023-07-28T08:42:35;1.35;;;0.80;;
60354;SDS011;46198;51.464;-0.066;2023-07-28T08:45:04;0.98;;;0.60;;
60354;SDS011;46198;51.464;-0.066;2023-07-28T08:47:35;1.17;;;0.60;;
60354;SDS011;46198;51.464;-0.066;2023-07-28T08:50:04;0.90;;;0.70;;
60354;SDS011;46198;51.464;-0.066;2023-07-28T08:52:33;2.22;;;0.70;;
60354;SDS011;46198;51.464;-0.066;2023-07-28T08:55:01;1.15;;;0.60;;
60354;SDS011;46198;51.464;-0.066;2023-07-28T08:57:31;1.30;;;0.60;;
60354;SDS011;46198;51.464;-0.066;2023-07-28T09:00:06;0.50;;;0.50;;
60354;SDS011;46198;51.464;-0.066;2023-07-28T09:02:35;2.10;;;0.60;;
60354;SDS011;46198;51.464;-0.066;2023-07-28T09:05:04;1.33;;;0.85;;
60354;SDS011;46198;51.464;-0.066;2023-07-28T09:07:35;2.40;;;0.93;;
60354;SDS011;46198;51.464;-0.066;2023-07-28T09:10:04;0.63;;;0.60;;
60354;SDS011;46198;51.464;-0.066;2023-07-28T09:12:34;1.30;;;0.70;;
60354;SDS011;46198;51.464;-0.066;2023-07-28T09:15:02;2.67;;;0.88;;
60354;SDS011;46198;51.464;-0.066;2023-07-28T09:17:33;0.75;;;0.75;;
60354;SDS011;46198;51.464;-0.066;2023-07-28T09:20:13;0.68;;;0.63;;
60354;SDS011;46198;51.464;-0.066;2023-07-28T09:22:43;1.95;;;0.88;;
60354;SDS011;46198;51.464;-0.066;2023-07-28T09:25:12;1.45;;;0.60;;
60354;SDS011;46198;51.464;-0.066;2023-07-28T09:27:43;2.13;;;0.70;;
60354;SDS011;46198;51.464;-0.066;2023-07-28T09:30:17;1.92;;;0.68;;
60354;SDS011;46198;51.464;-0.066;2023-07-28T09:32:46;0.90;;;0.52;;
60354;SDS011;46198;51.464;-0.066;2023-07-28T09:35:22;2.00;;;0.82;;
60354;SDS011;46198;51.464;-0.066;2023-07-28T09:37:58;0.70;;;0.70;;
60354;SDS011;46198;51.464;-0.066;2023-07-28T09:40:29;3.22;;;0.80;;
60354;SDS011;46198;51.464;-0.066;2023-07-28T09:43:02;0.95;;;0.80;;
60354;SDS011;46198;51.464;-0.066;2023-07-28T09:45:34;3.03;;;0.85;;
60354;SDS011;46198;51.464;-0.066;2023-07-28T09:48:05;0.90;;;0.52;;
60354;SDS011;46198;51.464;-0.066;2023-07-28T09:50:36;1.58;;;0.80;;
60354;SDS011;46198;51.464;-0.066;2023-07-28T09:53:16;3.72;;;0.70;;
60354;SDS011;46198;51.464;-0.066;2023-07-28T09:58:24;0.90;;;0.90;;
60354;SDS011;46198;51.464;-0.066;2023-07-28T10:00:53;0.88;;;0.75;;
60354;SDS011;46198;51.464;-0.066;2023-07-28T10:03:27;0.82;;;0.70;;
60354;SDS011;46198;51.464;-0.066;2023-07-28T10:05:56;1.80;;;0.50;;
60354;SDS011;46198;51.464;-0.066;2023-07-28T10:08:47;0.73;;;0.73;;
60354;SDS011;46198;51.464;-0.066;2023-07-28T10:11:15;0.95;;;0.70;;
60354;SDS011;46198;51.464;-0.066;2023-07-28T10:13:47;0.70;;;0.70;;
60354;SDS011;46198;51.464;-0.066;2023-07-28T10:16:15;1.20;;;0.80;;
60354;SDS011;46198;51.464;-0.066;2023-07-28T10:18:51;1.17;;;0.70;;
60354;SDS011;46198;51.464;-0.066;2023-07-28T10:21:20;1.08;;;0.80;;
60354;SDS011;46198;51.464;-0.066;2023-07-28T10:23:53;1.00;;;0.90;;
60354;SDS011;46198;51.464;-0.066;2023-07-28T10:26:33;3.22;;;1.20;;
60354;SDS011;46198;51.464;-0.066;2023-07-28T10:29:09;2.88;;;1.08;;
60354;SDS011;46198;51.464;-0.066;2023-07-28T10:31:48;2.78;;;1.23;;
60354;SDS011;46198;51.464;-0.066;2023-07-28T10:34:18;1.20;;;0.93;;
60354;SDS011;46198;51.464;-0.066;2023-07-28T10:36:58;1.35;;;0.93;;
60354;SDS011;46198;51.464;-0.066;2023-07-28T10:39:27;2.55;;;1.35;;
60354;SDS011;46198;51.464;-0.066;2023-07-28T10:42:03;1.80;;;0.95;;
60354;SDS011;46198;51.464;-0.066;2023-07-28T10:44:34;4.10;;;1.02;;
60354;SDS011;46198;51.464;-0.066;2023-07-28T10:49:35;2.53;;;1.10;;
60354;SDS011;46198;51.464;-0.066;2023-07-28T10:52:03;1.00;;;0.85;;
60354;SDS011;46198;51.464;-0.066;2023-07-28T10:54:33;4.38;;;1.10;;
60354;SDS011;46198;51.464;-0.066;2023-07-28T10:57:02;1.95;;;1.00;;
60354;SDS011;46198;51.464;-0.066;2023-07-28T10:59:34;0.80;;;0.63;;
60354;SDS011;46198;51.464;-0.066;2023-07-28T11:02:06;1.02;;;0.80;;
60354;SDS011;46198;51.464;-0.066;2023-07-28T11:04:34;0.82;;;0.73;;
60354;SDS011;46198;51.464;-0.066;2023-07-28T11:07:03;2.00;;;1.05;;
60354;SDS011;46198;51.464;-0.066;2023-07-28T11:09:34;2.13;;;1.30;;
60354;SDS011;46198;51.464;-0.066;2023-07-28T11:12:02;2.35;;;0.95;;
60354;SDS011;46198;51.464;-0.066;2023-07-28T11:14:31;1.77;;;1.10;;
60354;SDS011;46198;51.464;-0.066;2023-07-28T11:17:01;2.10;;;0.80;;
60354;SDS011;46198;51.464;-0.066;2023-07-28T11:19:31;3.05;;;0.93;;
60354;SDS011;46198;51.464;-0.066;2023-07-28T11:22:13;1.83;;;1.25;;
60354;SDS011;46198;51.464;-0.066;2023-07-28T11:24:57;0.98;;;0.88;;
60354;SDS011;46198;51.464;-0.066;2023-07-28T11:27:28;1.80;;;1.10;;
60354;SDS011;46198;51.464;-0.066;2023-07-28T11:29:56;2.13;;;1.08;;
60354;SDS011;46198;51.464;-0.066;2023-07-28T11:32:27;0.75;;;0.75;;
60354;SDS011;46198;51.464;-0.066;2023-07-28T11:35:02;2.35;;;1.20;;
60354;SDS011;46198;51.464;-0.066;2023-07-28T11:37:34;3.80;;;1.80;;
60354;SDS011;46198;51.464;-0.066;2023-07-28T11:40:05;1.98;;;1.30;;
60354;SDS011;46198;51.464;-0.066;2023-07-28T11:42:38;3.30;;;1.63;;
60354;SDS011;46198;51.464;-0.066;2023-07-28T11:45:12;1.88;;;1.05;;
60354;SDS011;46198;51.464;-0.066;2023-07-28T11:47:52;1.30;;;0.93;;
60354;SDS011;46198;51.464;-0.066;2023-07-28T11:50:23;1.50;;;0.90;;
60354;SDS011;46198;51.464;-0.066;2023-07-28T11:52:55;2.75;;;1.60;;
60354;SDS011;46198;51.464;-0.066;2023-07-28T11:55:28;2.20;;;1.23;;
60354;SDS011;46198;51.464;-0.066;2023-07-28T11:58:06;2.22;;;1.60;;
60354;SDS011;46198;51.464;-0.066;2023-07-28T12:00:39;2.45;;;1.20;;
60354;SDS011;46198;51.464;-0.066;2023-07-28T12:03:11;0.55;;;0.55;;
60354;SDS011;46198;51.464;-0.066;2023-07-28T12:05:41;3.78;;;1.20;;
60354;SDS011;46198;51.464;-0.066;2023-07-28T12:08:33;2.17;;;0.70;;
60354;SDS011;46198;51.464;-0.066;2023-07-28T12:11:03;0.80;;;0.80;;
60354;SDS011;46198;51.464;-0.066;2023-07-28T12:13:46;1.65;;;0.77;;
60354;SDS011;46198;51.464;-0.066;2023-07-28T12:16:38;0.85;;;0.75;;
60354;SDS011;46198;51.464;-0.066;2023-07-28T12:19:13;1.25;;;0.75;;
60354;SDS011;46198;51.464;-0.066;2023-07-28T12:21:41;2.60;;;0.77;;
60354;SDS011;46198;51.464;-0.066;2023-07-28T12:24:16;1.02;;;0.93;;
60354;SDS011;46198;51.464;-0.066;2023-07-28T12:26:44;1.23;;;0.70;;
60354;SDS011;46198;51.464;-0.066;2023-07-28T12:29:17;1.23;;;1.13;;
60354;SDS011;46198;51.464;-0.066;2023-07-28T12:31:56;0.80;;;0.80;;
60354;SDS011;46198;51.464;-0.066;2023-07-28T12:34:30;2.25;;;1.80;;
60354;SDS011;46198;51.464;-0.066;2023-07-28T12:37:17;0.80;;;0.80;;
60354;SDS011;46198;51.464;-0.066;2023-07-28T12:40:06;1.35;;;1.00;;
60354;SDS011;46198;51.464;-0.066;2023-07-28T12:42:57;1.10;;;1.00;;
60354;SDS011;46198;51.464;-0.066;2023-07-28T12:45:29;1.92;;;1.10;;
60354;SDS011;46198;51.464;-0.066;2023-07-28T12:48:17;1.98;;;1.48;;
60354;SDS011;46198;51.464;-0.066;2023-07-28T12:50:48;1.10;;;1.00;;
60354;SDS011;46198;51.464;-0.066;2023-07-28T12:53:28;1.67;;;1.02;;
60354;SDS011;46198;51.464;-0.066;2023-07-28T12:55:56;2.10;;;1.60;;
60354;SDS011;46198;51.464;-0.066;2023-07-28T12:58:27;2.17;;;1.20;;
60354;SDS011;46198;51.464;-0.066;2023-07-28T13:00:58;3.05;;;1.27;;
60354;SDS011;46198;51.464;-0.066;2023-07-28T13:03:29;2.90;;;1.60;;
60354;SDS011;46198;51.464;-0.066;2023-07-28T13:05:58;2.70;;;1.80;;
60354;SDS011;46198;51.464;-0.066;2023-07-28T13:08:27;1.50;;;1.17;;
60354;SDS011;46198;51.464;-0.066;2023-07-28T13:10:58;2.45;;;1.70;;
60354;SDS011;46198;51.464;-0.066;2023-07-28T13:13:29;2.88;;;1.55;;
60354;SDS011;46198;51.464;-0.066;2023-07-28T13:15:57;5.38;;;2.72;;
60354;SDS011;46198;51.464;-0.066;2023-07-28T13:18:26;1.60;;;1.13;;
60354;SDS011;46198;51.464;-0.066;2023-07-28T13:20:56;0.80;;;0.70;;
60354;SDS011;46198;51.464;-0.066;2023-07-28T13:23:25;1.08;;;0.80;;
60354;SDS011;46198;51.464;-0.066;2023-07-28T13:25:53;1.27;;;0.95;;
60354;SDS011;46198;51.464;-0.066;2023-07-28T13:28:21;3.40;;;1.50;;
60354;SDS011;46198;51.464;-0.066;2023-07-28T13:30:50;1.67;;;0.98;;
60354;SDS011;46198;51.464;-0.066;2023-07-28T13:33:19;1.17;;;0.98;;
60354;SDS011;46198;51.464;-0.066;2023-07-28T13:35:47;3.33;;;1.75;;
60354;SDS011;46198;51.464;-0.066;2023-07-28T13:38:15;0.77;;;0.77;;
60354;SDS011;46198;51.464;-0.066;2023-07-28T13:40:47;0.93;;;0.80;;
60354;SDS011;46198;51.464;-0.066;2023-07-28T13:43:15;2.00;;;0.80;;
60354;SDS011;46198;51.464;-0.066;2023-07-28T13:45:46;1.00;;;0.88;;
60354;SDS011;46198;51.464;-0.066;2023-07-28T13:48:15;1.15;;;0.93;;
60354;SDS011;46198;51.464;-0.066;2023-07-28T13:50:46;1.10;;;1.00;;
60354;SDS011;46198;51.464;-0.066;2023-07-28T13:53:17;0.80;;;0.80;;
60354;SDS011;46198;51.464;-0.066;2023-07-28T13:55:49;0.90;;;0.70;;
60354;SDS011;46198;51.464;-0.066;2023-07-28T13:58:20;1.10;;;0.55;;
60354;SDS011;46198;51.464;-0.066;2023-07-28T14:00:49;0.80;;;0.70;;
60354;SDS011;46198;51.464;-0.066;2023-07-28T14:03:17;0.60;;;0.60;;
60354;SDS011;46198;51.464;-0.066;2023-07-28T14:05:46;0.60;;;0.60;;
60354;SDS011;46198;51.464;-0.066;2023-07-28T14:08:15;0.88;;;0.88;;
60354;SDS011;46198;51.464;-0.066;2023-07-28T14:10:46;0.70;;;0.70;;
60354;SDS011;46198;51.464;-0.066;2023-07-28T14:13:23;0.73;;;0.70;;
60354;SDS011;46198;51.464;-0.066;2023-07-28T14:15:58;0.75;;;0.70;;
60354;SDS011;46198;51.464;-0.066;2023-07-28T14:18:29;2.30;;;1.23;;
60354;SDS011;46198;51.464;-0.066;2023-07-28T14:20:57;1.20;;;1.10;;
60354;SDS011;46198;51.464;-0.066;2023-07-28T14:23:26;1.80;;;0.52;;
60354;SDS011;46198;51.464;-0.066;2023-07-28T14:25:57;0.80;;;0.80;;
60354;SDS011;46198;51.464;-0.066;2023-07-28T14:28:25;1.10;;;0.82;;
60354;SDS011;46198;51.464;-0.066;2023-07-28T14:30:53;3.33;;;0.90;;
60354;SDS011;46198;51.464;-0.066;2023-07-28T14:33:21;1.95;;;1.10;;
60354;SDS011;46198;51.464;-0.066;2023-07-28T14:35:49;1.30;;;1.20;;
60354;SDS011;46198;51.464;-0.066;2023-07-28T14:38:17;1.17;;;1.00;;
60354;SDS011;46198;51.464;-0.066;2023-07-28T14:40:46;1.38;;;1.10;;
60354;SDS011;46198;51.464;-0.066;2023-07-28T14:43:17;2.17;;;1.13;;
60354;SDS011;46198;51.464;-0.066;2023-07-28T14:45:46;2.15;;;1.20;;
60354;SDS011;46198;51.464;-0.066;2023-07-28T14:48:16;1.90;;;1.10;;
60354;SDS011;46198;51.464;-0.066;2023-07-28T14:50:44;1.20;;;1.10;;
60354;SDS011;46198;51.464;-0.066;2023-07-28T14:53:28;2.35;;;1.17;;
60354;SDS011;46198;51.464;-0.066;2023-07-28T14:56:00;3.13;;;1.40;;
60354;SDS011;46198;51.464;-0.066;2023-07-28T14:58:31;2.17;;;1.20;;
60354;SDS011;46198;51.464;-0.066;2023-07-28T15:00:59;2.63;;;1.80;;
60354;SDS011;46198;51.464;-0.066;2023-07-28T15:03:29;1.48;;;1.20;;
60354;SDS011;46198;51.464;-0.066;2023-07-28T15:05:58;1.55;;;1.00;;
60354;SDS011;46198;51.464;-0.066;2023-07-28T15:08:27;1.40;;;1.25;;
60354;SDS011;46198;51.464;-0.066;2023-07-28T15:10:55;2.30;;;1.30;;
60354;SDS011;46198;51.464;-0.066;2023-07-28T15:13:23;1.58;;;1.20;;